• Join FlightAware (Why Join?)
  • Login
  • US Flag 
05:25AM EDT


 

Airport Tracker/Info


-or-


 

Live Flight TrackerFlight Track Log ✈ THY2453 ✈ 16-May-2013 ✈ LTAF / ADA - LTBA / IST

Flight Track Log - Related Links

Times and Time Zones

All times are in EDT time to prevent confusion due to time zone crossing. See the THY2453 flight status page for this flight to view local times or setup timezone preferences in your user account.

Time Position Orientation Groundspeed Altitude Reporting Facility
EDT Latitude Longitude Course Direction KTS MPH feet Rate Location/Type
11:50PM 37.2750 34.8484 311° West  Level Estimated
11:51PM 37.3334 34.7616 310° West  Level Estimated
11:52PM 37.3917 34.6747 310° West  Level Estimated
11:53PM 37.4499 34.5876 310° West  Level Estimated
11:54PM 37.5081 34.5004 310° West  Level Estimated
11:55PM 37.5662 34.4131 310° West  Level Estimated
11:56PM 37.6243 34.3256 310° West  Level Estimated
11:57PM 37.6823 34.2380 310° West  Level Estimated
11:58PM 37.7402 34.1503 310° West  Level Estimated
11:59PM 37.7981 34.0624 310° West  Level Estimated
12:00AM 37.8559 33.9744 310° West  Level Estimated
12:01AM 37.9136 33.8862 310° West  Level Estimated
12:02AM 37.9713 33.7979 310° West  Level Estimated
12:03AM 38.0289 33.7095 310° West  Level Estimated
12:04AM 38.0864 33.6209 310° West  Level Estimated
12:05AM 38.1439 33.5322 309° West  Level Estimated
12:06AM 38.2013 33.4433 309° West  Level Estimated
12:07AM 38.2586 33.3543 309° West  Level Estimated
12:08AM 38.3159 33.2652 309° West  Level Estimated
12:09AM 38.3731 33.1759 309° West  Level Estimated
12:10AM 38.4302 33.0865 309° West  Level Estimated
12:11AM 38.4873 32.9969 309° West  Level Estimated
12:12AM 38.5442 32.9072 309° West  Level Estimated
12:13AM 38.6012 32.8174 309° West  Level Estimated
12:14AM 38.6580 32.7274 309° West  Level Estimated
12:15AM 38.7148 32.6372 309° West  Level Estimated
12:16AM 38.7715 32.5470 309° West  Level Estimated
12:17AM 38.8282 32.4566 309° West  Level Estimated
12:18AM 38.8848 32.3660 309° West  Level Estimated
12:19AM 38.9413 32.2753 309° West  Level Estimated
12:20AM 38.9977 32.1844 309° West  Level Estimated
12:21AM 39.0541 32.0935 309° West  Level Estimated
12:22AM 39.1104 32.0023 309° West  Level Estimated
12:23AM 39.1666 31.9110 308° West  Level Estimated
12:24AM 39.2228 31.8196 308° West  Level Estimated
12:25AM 39.2788 31.7280 308° West  Level Estimated
12:26AM 39.3348 31.6363 308° West  Level Estimated
12:27AM 39.3908 31.5444 308° West  Level Estimated
12:28AM 39.4467 31.4524 308° West  Level Estimated
12:29AM 39.5024 31.3603 308° West  Level Estimated
12:30AM 39.5582 31.2679 308° West  Level Estimated
12:31AM 39.6138 31.1755 308° West  Level Estimated
12:32AM 39.6694 31.0829 308° West  Level Estimated
12:33AM 39.7249 30.9901 308° West  Level Estimated
12:34AM 39.7803 30.8972 308° West  Level Estimated
12:35AM 39.8357 30.8041 308° West  Level Estimated
12:36AM 39.8909 30.7109 308° West  Level Estimated
12:37AM 39.9461 30.6176 308° West  Level Estimated
12:38AM 40.0013 30.5241 308° West  Level Estimated
12:39AM 40.0563 30.4304 308° West  Level Estimated
12:40AM 40.1113 30.3366 307° West  Level Estimated
12:41AM 40.1662 30.2426 307° West  Level Estimated
12:42AM 40.2210 30.1485 307° West  Level Estimated
12:43AM 40.2758 30.0542 307° West  Level Estimated
12:44AM 40.3304 29.9598 307° West  Level Estimated
12:45AM 40.3851 29.8652 307° West  Level Estimated
12:46AM 40.4396 29.7705 307° West  Level Estimated
12:47AM 40.4940 29.6756 307° West  Level Estimated
12:48AM 40.5484 29.5806 307° West  Level Estimated
12:49AM 40.6026 29.4854 307° West  Level Estimated
12:50AM 40.6569 29.3901 307° West  Level Estimated
12:51AM 40.7110 29.2946 307° West  Level Estimated
12:52AM 40.7650 29.1989 307° West  Level Estimated
12:53AM 40.8190 29.1031 307° West  Level Estimated
12:54AM 40.8729 29.0072 307° West  Level Estimated
12:55AM 40.9267 28.9110 307° West  Level Estimated
12:56AM 40.9769 28.8211 306° West  Level Estimated
12:57AM 40.9769 28.8211 21° North  Level Estimated
12:58AM 40.9769 28.8211 21° North  Level Estimated
12:59AM 40.9769 28.8211 21° North  Level Estimated
01:00AM 40.9769 28.8211 21° North  Level Estimated
01:01AM 40.9769 28.8211 21° North  Level Estimated
01:02AM 40.9769 28.8211 21° North  Level Estimated
01:03AM 40.9769 28.8211 21° North  Level Estimated
01:04AM 40.9769 28.8211 21° North  Level Estimated
01:05AM 40.9769 28.8211 21° North  Level Estimated
01:06AM 40.9769 28.8211 21° North  Level Estimated
01:07AM 40.9769 28.8211 21° North  Level Estimated
01:08AM 40.9769 28.8211 21° North  Level Estimated
01:09AM 40.9769 28.8211 21° North  Level Estimated
01:10AM 40.9769 28.8211 21° North  Level Estimated
01:11AM 40.9769 28.8211 21° North  Level Estimated
01:12AM 40.9769 28.8211 21° North  Level Estimated